Time;durP1;ratioP1;P1;durP2;ratioP2;P2;SDS_P1;SDS_P2;PMS_P1;PMS_P2;Temp;Humidity;BMP_temperature;BMP_pressure;BME280_temperature;BME280_humidity;BME280_pressure;Samples;Min_cycle;Max_cycle;Signal;HPM_P1;HPM_P2
2021/09/14 05:52:28;;;;;;;11.35;8.65;;;;;;;;;;10629052;27;20485;-86
2021/09/14 05:57:29;;;;;;;;;;;;;;;;;;10612670;28;20024;-85
2021/09/14 06:02:30;;;;;;;9.30;7.13;;;;;;;;;;10577189;28;20323;-87
2021/09/14 06:07:31;;;;;;;6.28;5.15;;;;;;;;;;10576261;28;20024;-88
2021/09/14 06:12:31;;;;;;;8.13;7.13;;;;;;;;;;10576246;28;20469;-88
2021/09/14 06:17:32;;;;;;;11.48;9.45;;;;;;;;;;10578803;28;20028;-88
2021/09/14 06:22:33;;;;;;;7.32;6.40;;;;;;;;;;10574813;28;20028;-88
2021/09/14 06:27:34;;;;;;;6.57;5.88;;;;;;;;;;10573720;28;20032;-88
2021/09/14 06:32:35;;;;;;;6.68;5.57;;;;;;;;;;10573222;28;20088;-88
2021/09/14 06:37:37;;;;;;;12.98;10.40;;;;;;;;;;10573034;28;20043;-88
2021/09/14 06:42:37;;;;;;;11.75;10.55;;;;;;;;;;10574523;28;20020;-88
2021/09/14 06:47:38;;;;;;;14.05;11.45;;;;;;;;;;10573471;28;20035;-88
2021/09/14 06:52:39;;;;;;;12.82;11.52;;;;;;;;;;10575208;28;20024;-89
2021/09/14 06:57:40;;;;;;;13.20;11.50;;;;;;;;;;10581978;28;20024;-89
2021/09/14 07:02:41;;;;;;;6.43;5.75;;;;;;;;;;10551782;28;20118;-85
2021/09/14 07:07:42;;;;;;;9.55;8.55;;;;;;;;;;10547796;28;20031;-85
2021/09/14 07:12:43;;;;;;;6.82;5.70;;;;;;;;;;10548743;28;20039;-85
2021/09/14 07:17:44;;;;;;;6.90;5.30;;;;;;;;;;10548365;28;20118;-84
2021/09/14 07:22:45;;;;;;;5.15;4.43;;;;;;;;;;10569077;28;20052;-85
2021/09/14 07:27:46;;;;;;;5.25;4.70;;;;;;;;;;10588556;28;20020;-87
2021/09/14 07:32:54;;;;;;;8.73;6.90;;;;;;;;;;10587433;28;20043;-87
2021/09/14 07:37:55;;;;;;;5.72;5.03;;;;;;;;;;10556649;28;20024;-87
2021/09/14 07:42:57;;;;;;;8.75;5.28;;;;;;;;;;10553075;28;20028;-87
2021/09/14 07:47:58;;;;;;;7.55;5.50;;;;;;;;;;10555966;28;20024;-85
2021/09/14 07:52:59;;;;;;;5.85;4.82;;;;;;;;;;10556157;28;20074;-86
2021/09/14 07:58:00;;;;;;;7.22;5.00;;;;;;;;;;10552626;28;20032;-86
2021/09/14 08:03:04;;;;;;;7.50;4.90;;;;;;;;;;10550393;28;20027;-87
2021/09/14 08:08:05;;;;;;;5.68;5.10;;;;;;;;;;10554363;28;20068;-86
2021/09/14 08:13:06;;;;;;;9.90;6.53;;;;;;;;;;10554321;28;20121;-86
2021/09/14 08:18:07;;;;;;;6.90;6.20;;;;;;;;;;10559388;28;20032;-86
2021/09/14 08:23:11;;;;;;;8.05;5.85;;;;;;;;;;10557128;28;20038;-86
2021/09/14 08:28:12;;;;;;;8.75;6.30;;;;;;;;;;10555394;28;20032;-86
2021/09/14 08:33:13;;;;;;;8.35;7.35;;;;;;;;;;10554107;28;20024;-85
2021/09/14 08:38:14;;;;;;;10.55;6.20;;;;;;;;;;10553272;28;20028;-86
2021/09/14 08:43:15;;;;;;;7.88;5.88;;;;;;;;;;10554170;28;20509;-86
2021/09/14 08:48:17;;;;;;;6.90;5.07;;;;;;;;;;10555491;28;20032;-86
2021/09/14 08:53:21;;;;;;;11.07;8.90;;;;;;;;;;10552080;28;20336;-87
2021/09/14 08:58:27;;;;;;;8.07;5.28;;;;;;;;;;10548297;28;20089;-89
2021/09/14 09:03:31;;;;;;;6.70;5.55;;;;;;;;;;10551003;28;20012;-89
2021/09/14 09:08:32;;;;;;;6.25;4.90;;;;;;;;;;10542562;28;20475;-90
2021/09/14 09:13:45;;;;;;;9.75;5.18;;;;;;;;;;10542132;28;20505;-90
2021/09/14 09:18:57;;;;;;;8.93;4.70;;;;;;;;;;10543128;28;20028;-91
2021/09/14 09:24:03;;;;;;;8.90;5.35;;;;;;;;;;10543763;28;20024;-89
2021/09/14 09:29:05;;;;;;;9.48;8.48;;;;;;;;;;10542968;28;20031;-91
2021/09/14 09:34:07;;;;;;;7.90;4.82;;;;;;;;;;10542230;28;20462;-86
2021/09/14 09:39:09;;;;;;;11.38;8.65;;;;;;;;;;10542922;28;20063;-88
2021/09/14 09:44:12;;;;;;;7.97;6.85;;;;;;;;;;10544509;28;20500;-86
2021/09/14 09:49:13;;;;;;;11.02;8.45;;;;;;;;;;10543167;28;20024;-88
2021/09/14 09:54:20;;;;;;;9.80;8.80;;;;;;;;;;10544889;28;20028;-88
2021/09/14 09:59:24;;;;;;;9.45;8.35;;;;;;;;;;10543980;28;20035;-89
2021/09/14 10:04:46;;;;;;;6.68;5.60;;;;;;;;;;10542900;28;20096;-90
2021/09/14 10:09:56;;;;;;;6.50;5.78;;;;;;;;;;10547317;28;20118;-88
2021/09/14 11:05:10;;;;;;;17.80;15.77;;;;;;;;;;10574133;22;20019;-85
2021/09/14 11:10:12;;;;;;;8.30;7.18;;;;;;;;;;10600931;28;20101;-84
2021/09/14 11:15:32;;;;;;;7.10;6.40;;;;;;;;;;10601794;28;20024;-87
2021/09/14 11:20:36;;;;;;;10.18;7.18;;;;;;;;;;10607543;28;20039;-84
2021/09/14 11:25:39;;;;;;;8.90;6.78;;;;;;;;;;10609091;28;20039;-83
2021/09/14 11:30:40;;;;;;;6.25;5.65;;;;;;;;;;10607153;28;20032;-83
2021/09/14 11:35:42;;;;;;;7.70;6.88;;;;;;;;;;10604526;28;20039;-83
2021/09/14 11:41:02;;;;;;;8.35;7.05;;;;;;;;;;10606218;28;20055;-85
2021/09/14 11:46:17;;;;;;;7.18;4.70;;;;;;;;;;10608199;28;20036;-84
2021/09/14 11:51:18;;;;;;;8.82;5.78;;;;;;;;;;10603242;28;20043;-84
2021/09/14 11:56:20;;;;;;;8.30;5.68;;;;;;;;;;10600094;28;20078;-85
2021/09/14 12:01:23;;;;;;;8.75;5.70;;;;;;;;;;10600026;28;20128;-83
2021/09/14 12:06:28;;;;;;;6.57;5.13;;;;;;;;;;10599609;28;20035;-84
2021/09/14 12:34:15;;;;;;;8.25;6.00;;;;;;;;;;10602165;28;20015;-84
2021/09/14 13:31:04;;;;;;;6.40;5.80;;;;;;;;;;10519597;28;20047;-87
2021/09/14 14:21:48;;;;;;;6.00;5.40;;;;;;;;;;10601896;28;20043;-87
2021/09/14 15:23:44;;;;;;;10.88;7.85;;;;;;;;;;10469930;28;20029;-87
2021/09/14 15:34:36;;;;;;;6.35;5.68;;;;;;;;;;10470986;28;20045;-86
2021/09/14 15:39:43;;;;;;;6.10;5.50;;;;;;;;;;10453346;28;20037;-85
2021/09/14 15:45:17;;;;;;;5.53;4.88;;;;;;;;;;10470270;28;20040;-84
2021/09/14 16:01:50;;;;;;;6.75;5.80;;;;;;;;;;10554728;28;20036;-85
2021/09/14 16:07:25;;;;;;;6.10;5.50;;;;;;;;;;10553664;28;20048;-86
2021/09/14 16:12:52;;;;;;;9.88;6.10;;;;;;;;;;10536345;28;20589;-85
2021/09/14 17:19:46;;;;;;;6.40;5.15;;;;;;;;;;10701548;27;20112;-90
2021/09/14 18:20:58;;;;;;;5.63;5.00;;;;;;;;;;10629591;27;20080;-88
2021/09/14 18:26:44;;;;;;;6.88;5.85;;;;;;;;;;10608060;28;20081;-87
2021/09/14 18:37:56;;;;;;;6.43;4.65;;;;;;;;;;10625901;28;20035;-90
2021/09/14 18:42:57;;;;;;;6.28;4.80;;;;;;;;;;10632277;28;20127;-90
2021/09/14 18:47:58;;;;;;;5.35;4.70;;;;;;;;;;10637435;28;20020;-87
2021/09/14 18:52:59;;;;;;;5.65;4.88;;;;;;;;;;10637686;28;20031;-87
2021/09/14 18:58:01;;;;;;;5.00;4.53;;;;;;;;;;10643961;27;20039;-87
2021/09/14 19:03:08;;;;;;;6.10;5.45;;;;;;;;;;10653854;27;20027;-86
2021/09/14 19:08:09;;;;;;;5.80;5.28;;;;;;;;;;10645868;27;20046;-90
2021/09/14 19:13:12;;;;;;;6.63;5.68;;;;;;;;;;10622694;27;20035;-88
2021/09/14 19:18:22;;;;;;;5.13;4.63;;;;;;;;;;10631237;27;20031;-90
2021/09/14 19:23:23;;;;;;;5.78;5.20;;;;;;;;;;10630727;27;20031;-87
2021/09/14 19:28:24;;;;;;;6.78;5.70;;;;;;;;;;10633157;27;20043;-88
2021/09/14 19:33:25;;;;;;;7.30;5.55;;;;;;;;;;10636607;27;20369;-89
2021/09/14 19:38:26;;;;;;;5.47;4.97;;;;;;;;;;10643064;27;20039;-87
2021/09/14 19:43:27;;;;;;;6.72;5.18;;;;;;;;;;10626073;27;20139;-87
2021/09/14 19:48:28;;;;;;;8.35;7.25;;;;;;;;;;10622190;27;20031;-86
2021/09/14 19:53:29;;;;;;;5.93;5.43;;;;;;;;;;10617097;27;20028;-88
2021/09/14 19:58:30;;;;;;;8.07;7.28;;;;;;;;;;10612769;27;20035;-87
2021/09/14 20:03:31;;;;;;;7.68;6.95;;;;;;;;;;10611168;27;20031;-86
2021/09/14 20:08:32;;;;;;;7.82;7.03;;;;;;;;;;10637396;27;20035;-90
2021/09/14 20:13:35;;;;;;;9.57;8.63;;;;;;;;;;10654899;27;20027;-87
